Time;durP1;ratioP1;P1;durP2;ratioP2;P2;SDS_P1;SDS_P2;PMS_P1;PMS_P2;Temp;Humidity;BMP_temperature;BMP_pressure;BME280_temperature;BME280_humidity;BME280_pressure;Samples;Min_cycle;Max_cycle;Signal;HPM_P1;HPM_P2
2023/04/16 00:02:02;;;;;;;;;;;;;;;4.40;39.11;102842.44;5040879;28;19913;-71
2023/04/16 00:04:29;;;;;;;;;;;;;;;4.35;39.40;102838.22;5038362;28;20399;-69
2023/04/16 00:06:54;;;;;;;;;;;;;;;4.35;39.67;102847.94;5038315;28;19983;-69
2023/04/16 00:09:19;;;;;;;;;;;;;;;4.30;39.42;102840.19;5038345;28;19913;-70
2023/04/16 00:11:45;;;;;;;;;;;;;;;4.31;39.67;102841.91;5038026;28;19924;-70
2023/04/16 00:14:10;;;;;;;;;;;;;;;4.30;39.38;102839.34;5038423;28;19967;-70
2023/04/16 00:16:37;;;;;;;;;;;;;;;4.30;39.65;102842.00;5033413;28;19968;-70
2023/04/16 00:19:02;;;;;;;;;;;;;;;4.28;39.64;102839.41;5035117;28;20316;-70
2023/04/16 00:21:27;;;;;;;;;;;;;;;4.25;39.48;102841.34;5035247;28;19967;-68
2023/04/16 00:23:54;;;;;;;;;;;;;;;4.20;39.45;102831.00;5035263;28;19991;-68
2023/04/16 00:26:19;;;;;;;;;;;;;;;4.20;40.05;102832.81;5035082;28;20365;-68
2023/04/16 00:28:44;;;;;;;;;;;;;;;4.17;39.59;102832.94;5035018;28;19917;-70
2023/04/16 00:31:10;;;;;;;;;;;;;;;4.13;40.13;102831.38;5035012;28;20371;-68
2023/04/16 00:33:35;;;;;;;;;;;;;;;4.10;39.94;102829.75;5034843;28;19913;-68
2023/04/16 00:36:00;;;;;;;;;;;;;;;4.04;40.10;102833.50;5034900;28;19913;-69
2023/04/16 00:38:29;;;;;;;;;;;;;;;4.03;40.18;102834.41;5035182;28;19921;-69
2023/04/16 00:40:57;;;;;;;;;;;;;;;4.02;40.20;102829.22;5034779;28;20396;-68
2023/04/16 00:43:24;;;;;;;;;;;;;;;4.04;40.39;102836.13;5033669;28;19917;-68
2023/04/16 00:45:50;;;;;;;;;;;;;;;4.07;40.07;102836.94;5034939;28;19913;-69
2023/04/16 00:48:15;;;;;;;;;;;;;;;4.09;39.87;102835.09;5034985;28;20264;-70
2023/04/16 00:50:41;;;;;;;;;;;;;;;4.10;40.02;102840.28;5034850;28;20423;-69
2023/04/16 00:53:06;;;;;;;;;;;;;;;4.13;39.98;102844.56;5034312;28;20311;-69
2023/04/16 00:55:32;;;;;;;;;;;;;;;4.13;39.94;102829.59;5034764;28;20509;-70
2023/04/16 00:57:57;;;;;;;;;;;;;;;4.11;40.17;102830.59;5053403;28;19917;-69
2023/04/16 01:00:22;;;;;;;;;;;;;;;4.11;39.60;102825.31;5041134;28;20427;-69
2023/04/16 01:02:48;;;;;;;;;;;;;;;4.10;39.91;102828.88;5044195;28;19921;-69
2023/04/16 01:05:13;;;;;;;;;;;;;;;4.08;39.74;102828.09;5036475;28;20083;-71
2023/04/16 01:07:39;;;;;;;;;;;;;;;4.09;39.95;102829.81;5038005;28;19941;-70
2023/04/16 01:10:04;;;;;;;;;;;;;;;4.07;40.17;102836.94;5035717;28;20357;-70
2023/04/16 01:12:30;;;;;;;;;;;;;;;4.09;39.88;102829.81;5037194;28;19913;-68
2023/04/16 01:14:55;;;;;;;;;;;;;;;4.10;40.42;102832.38;5034934;28;19913;-70
2023/04/16 01:17:20;;;;;;;;;;;;;;;4.10;40.25;102831.53;5034537;28;20008;-71
2023/04/16 01:19:46;;;;;;;;;;;;;;;4.07;40.74;102829.88;5032978;28;19913;-70
2023/04/16 01:22:11;;;;;;;;;;;;;;;4.06;40.03;102825.53;5034239;28;19914;-71
2023/04/16 01:24:36;;;;;;;;;;;;;;;3.99;40.32;102829.34;5034351;28;19917;-70
2023/04/16 01:27:02;;;;;;;;;;;;;;;3.94;40.00;102832.22;5033897;28;19967;-70
2023/04/16 01:29:28;;;;;;;;;;;;;;;3.89;40.54;102834.19;5034219;28;20020;-70
2023/04/16 01:31:53;;;;;;;;;;;;;;;3.91;40.43;102823.59;5033858;28;19924;-70
2023/04/16 01:34:18;;;;;;;;;;;;;;;3.84;40.77;102828.28;5033940;28;19920;-71
2023/04/16 01:36:44;;;;;;;;;;;;;;;3.77;41.04;102823.38;5033923;28;19979;-71
2023/04/16 01:39:12;;;;;;;;;;;;;;;3.72;40.77;102823.53;5034096;28;19967;-72
2023/04/16 01:41:38;;;;;;;;;;;;;;;3.65;41.13;102819.47;5034116;28;19998;-70
2023/04/16 01:44:04;;;;;;;;;;;;;;;3.57;41.13;102822.44;5034128;28;19976;-70
2023/04/16 01:46:32;;;;;;;;;;;;;;;3.54;41.55;102821.72;5033942;28;19920;-71
2023/04/16 01:48:58;;;;;;;;;;;;;;;3.53;41.26;102820.88;5034002;28;19913;-69
2023/04/16 01:51:24;;;;;;;;;;;;;;;3.49;41.34;102819.31;5033621;28;20381;-70
2023/04/16 01:53:49;;;;;;;;;;;;;;;3.51;41.48;102822.72;5033561;28;19960;-69
2023/04/16 01:56:15;;;;;;;;;;;;;;;3.52;41.91;102824.44;5033774;28;20000;-71
2023/04/16 01:58:41;;;;;;;;;;;;;;;3.50;41.87;102817.53;5033641;28;19920;-69
2023/04/16 02:01:07;;;;;;;;;;;;;;;3.46;42.04;102814.13;5033385;28;20008;-70
2023/04/16 02:03:34;;;;;;;;;;;;;;;3.47;41.92;102815.00;5033102;28;20011;-69
2023/04/16 02:06:00;;;;;;;;;;;;;;;3.44;41.67;102813.34;5033200;28;19924;-69
2023/04/16 02:08:26;;;;;;;;;;;;;;;3.46;42.06;102813.28;5033090;28;19913;-70
2023/04/16 02:10:51;;;;;;;;;;;;;;;3.47;42.00;102802.72;5033649;28;20241;-70
2023/04/16 02:13:16;;;;;;;;;;;;;;;3.48;42.03;102800.94;5033601;28;19913;-70
2023/04/16 02:15:48;;;;;;;;;;;;;;;3.48;41.85;102800.94;5033326;28;19913;-68
2023/04/16 02:18:14;;;;;;;;;;;;;;;3.49;41.75;102802.66;5042748;28;19978;-70
2023/04/16 02:20:40;;;;;;;;;;;;;;;3.47;41.99;102799.19;5052896;28;20311;-68
2023/04/16 02:23:05;;;;;;;;;;;;;;;3.45;42.15;102796.63;5052464;28;19921;-69
2023/04/16 02:25:31;;;;;;;;;;;;;;;3.41;42.07;102806.44;5053203;28;19916;-67
2023/04/16 02:27:57;;;;;;;;;;;;;;;3.40;42.02;102801.25;5052977;28;20384;-67
2023/04/16 02:30:23;;;;;;;;;;;;;;;3.38;42.37;102806.56;5052884;28;20003;-70
2023/04/16 02:32:48;;;;;;;;;;;;;;;3.42;41.89;102796.75;5052459;28;20345;-69
2023/04/16 02:35:13;;;;;;;;;;;;;;;3.43;42.26;102795.84;5052621;28;19921;-68
2023/04/16 02:37:39;;;;;;;;;;;;;;;3.41;42.30;102792.41;5052832;28;19959;-69
2023/04/16 02:40:05;;;;;;;;;;;;;;;3.39;42.08;102803.03;5052061;28;19956;-68
2023/04/16 02:42:30;;;;;;;;;;;;;;;3.38;42.27;102797.81;5053104;28;20019;-69
2023/04/16 02:44:56;;;;;;;;;;;;;;;3.39;42.30;102797.75;5052500;28;19913;-70
2023/04/16 02:47:21;;;;;;;;;;;;;;;3.42;42.45;102792.34;5052553;28;19913;-71
2023/04/16 02:49:46;;;;;;;;;;;;;;;3.45;42.22;102790.50;5052397;28;20364;-71
2023/04/16 02:52:12;;;;;;;;;;;;;;;3.45;42.52;102785.22;5053870;28;19921;-70
2023/04/16 02:54:37;;;;;;;;;;;;;;;3.43;42.36;102786.16;5054369;28;19912;-70
2023/04/16 02:57:02;;;;;;;;;;;;;;;3.39;41.95;102792.47;5035751;28;20280;-70
2023/04/16 02:59:28;;;;;;;;;;;;;;;3.37;42.53;102789.06;5053894;28;19919;-69
2023/04/16 03:01:53;;;;;;;;;;;;;;;3.37;42.48;102789.06;5052923;28;19919;-70
2023/04/16 03:04:20;;;;;;;;;;;;;;;3.36;42.71;102795.25;5052694;28;19917;-69
2023/04/16 03:06:45;;;;;;;;;;;;;;;3.35;42.70;102790.91;5052111;28;19921;-70
2023/04/16 03:09:11;;;;;;;;;;;;;;;3.37;42.70;102793.47;5052830;28;20360;-69
2023/04/16 03:11:36;;;;;;;;;;;;;;;3.39;42.77;102786.38;5052754;28;19935;-68
2023/04/16 03:14:02;;;;;;;;;;;;;;;3.39;42.89;102792.47;5052268;28;19967;-70
2023/04/16 03:16:27;;;;;;;;;;;;;;;3.40;42.72;102786.28;5052340;28;20279;-71
2023/04/16 03:18:52;;;;;;;;;;;;;;;3.40;42.61;102782.81;5052296;28;20443;-70
2023/04/16 03:21:18;;;;;;;;;;;;;;;3.37;42.55;102789.06;5035577;28;19919;-71
2023/04/16 03:23:43;;;;;;;;;;;;;;;3.40;42.36;102794.19;5055700;28;19947;-70
2023/04/16 03:26:10;;;;;;;;;;;;;;;3.47;42.95;102786.03;5055255;28;19946;-69
2023/04/16 03:28:35;;;;;;;;;;;;;;;3.43;42.56;102783.53;5054480;28;20368;-68
2023/04/16 03:31:01;;;;;;;;;;;;;;;3.40;42.52;102783.66;5055183;28;19912;-70
2023/04/16 03:33:26;;;;;;;;;;;;;;;3.37;43.20;102789.06;5056811;28;19959;-70
2023/04/16 03:35:55;;;;;;;;;;;;;;;3.36;42.85;102782.09;5056252;28;19913;-70
2023/04/16 03:38:21;;;;;;;;;;;;;;;3.39;42.64;102779.31;5056818;28;19913;-70
2023/04/16 03:40:46;;;;;;;;;;;;;;;3.43;42.90;102783.53;5057093;28;20090;-70
2023/04/16 03:43:12;;;;;;;;;;;;;;;3.50;43.03;102783.28;5054755;28;19913;-71
2023/04/16 03:45:42;;;;;;;;;;;;;;;3.50;42.70;102780.66;5052973;28;19978;-72
2023/04/16 03:48:07;;;;;;;;;;;;;;;3.48;42.93;102777.22;5051986;28;19917;-70
2023/04/16 03:50:33;;;;;;;;;;;;;;;3.42;43.15;102773.91;5053647;28;19927;-69
2023/04/16 03:52:58;;;;;;;;;;;;;;;3.43;42.82;102778.25;5055588;28;20327;-70
2023/04/16 03:55:23;;;;;;;;;;;;;;;3.50;42.73;102778.88;5055775;28;20334;-70
2023/04/16 03:57:49;;;;;;;;;;;;;;;3.55;43.04;102776.03;5055715;28;20280;-70
2023/04/16 04:00:14;;;;;;;;;;;;;;;3.58;43.00;102775.88;5056290;28;20011;-72
2023/04/16 04:02:40;;;;;;;;;;;;;;;3.62;42.78;102772.19;5055503;28;19958;-69
2023/04/16 04:05:05;;;;;;;;;;;;;;;3.65;43.37;102774.69;5055730;28;19917;-70
2023/04/16 04:07:30;;;;;;;;;;;;;;;3.62;42.96;102769.56;5055599;28;19924;-71
2023/04/16 04:09:56;;;;;;;;;;;;;;;3.63;43.08;102768.63;5055774;28;19999;-69
2023/04/16 04:12:21;;;;;;;;;;;;;;;3.65;43.16;102761.50;5064019;28;19913;-70
2023/04/16 04:14:47;;;;;;;;;;;;;;;3.69;42.92;102758.66;5076291;28;19908;-71
2023/04/16 04:17:18;;;;;;;;;;;;;;;3.72;42.73;102763.78;5074722;28;19917;-72
2023/04/16 04:19:43;;;;;;;;;;;;;;;3.71;42.78;102751.53;5057656;28;19913;-70
2023/04/16 04:22:09;;;;;;;;;;;;;;;3.77;43.32;102755.69;5056539;28;19922;-70
2023/04/16 04:24:34;;;;;;;;;;;;;;;3.90;42.99;102750.69;5038717;28;20352;-68
2023/04/16 04:27:00;;;;;;;;;;;;;;;3.98;42.57;102745.91;5056124;28;19916;-69
2023/04/16 04:29:26;;;;;;;;;;;;;;;4.01;42.56;102748.41;5055573;28;19913;-69
2023/04/16 04:31:52;;;;;;;;;;;;;;;3.98;42.67;102748.56;5037079;28;20045;-70
2023/04/16 04:34:17;;;;;;;;;;;;;;;4.02;43.04;102745.69;5054716;28;20287;-70
2023/04/16 04:36:43;;;;;;;;;;;;;;;4.09;42.44;102750.72;5020954;28;20468;-68
2023/04/16 04:39:29;;;;;;;;;;;;;;;4.09;42.71;102753.34;5055003;28;19913;-68
2023/04/16 04:41:54;;;;;;;;;;;;;;;4.09;42.71;102751.56;5054297;28;20271;-70
2023/04/16 04:44:19;;;;;;;;;;;;;;;4.12;42.31;102740.88;5036326;28;19913;-69
2023/04/16 04:46:44;;;;;;;;;;;;;;;4.09;42.32;102746.28;5054811;28;19917;-68
2023/04/16 04:49:10;;;;;;;;;;;;;;;4.11;42.51;102747.06;5054909;28;19920;-70
2023/04/16 04:51:35;;;;;;;;;;;;;;;4.13;42.42;102744.34;5055018;28;20291;-70
2023/04/16 04:54:00;;;;;;;;;;;;;;;4.20;41.80;102745.78;5055724;28;20315;-69
2023/04/16 04:56:26;;;;;;;;;;;;;;;4.20;41.92;102754.53;5055263;28;20276;-69
2023/04/16 04:58:51;;;;;;;;;;;;;;;4.25;42.27;102746.41;5054702;28;19989;-69
2023/04/16 05:01:16;;;;;;;;;;;;;;;4.28;42.05;102756.78;5054522;28;20042;-69
2023/04/16 05:03:43;;;;;;;;;;;;;;;4.33;42.27;102746.88;5037230;28;19917;-70
2023/04/16 05:06:08;;;;;;;;;;;;;;;4.35;41.46;102752.97;5054663;28;19917;-70
2023/04/16 05:08:36;;;;;;;;;;;;;;;4.40;41.98;102750.94;5053819;28;19947;-70
2023/04/16 05:11:01;;;;;;;;;;;;;;;4.41;41.86;102751.81;5053497;28;20357;-68
2023/04/16 05:13:26;;;;;;;;;;;;;;;4.41;41.83;102750.03;5036166;28;19962;-68
2023/04/16 05:15:52;;;;;;;;;;;;;;;4.47;42.40;102751.50;5054285;28;19913;-70
2023/04/16 05:18:17;;;;;;;;;;;;;;;4.51;41.67;102743.34;5054005;28;20225;-69
2023/04/16 05:20:42;;;;;;;;;;;;;;;4.61;41.64;102744.59;5054041;28;19920;-69
2023/04/16 05:23:14;;;;;;;;;;;;;;;4.75;41.43;102743.09;5036221;28;19920;-73
2023/04/16 05:25:39;;;;;;;;;;;;;;;4.83;41.43;102748.81;5053865;28;19912;-71
2023/04/16 05:28:05;;;;;;;;;;;;;;;4.94;41.25;102746.50;5053770;28;19924;-71
2023/04/16 05:30:30;;;;;;;;;;;;;;;5.00;40.93;102740.91;5053838;28;20387;-70
2023/04/16 05:32:55;;;;;;;;;;;;;;;5.15;40.54;102729.53;5054107;28;20260;-68
2023/04/16 05:35:21;;;;;;;;;;;;;;;5.23;40.44;102737.94;5053712;28;19934;-70
2023/04/16 05:37:46;;;;;;;;;;;;;;;5.24;40.32;102738.81;5053935;28;20391;-73
2023/04/16 05:40:12;;;;;;;;;;;;;;;5.32;40.44;102735.75;5035806;28;20329;-68
2023/04/16 05:42:38;;;;;;;;;;;;;;;5.42;39.75;102726.41;5053564;28;20284;-73
2023/04/16 05:45:03;;;;;;;;;;;;;;;5.52;39.48;102731.13;5053552;28;19913;-72
2023/04/16 05:47:29;;;;;;;;;;;;;;;5.59;39.08;102729.84;5036554;28;20384;-70
2023/04/16 05:49:54;;;;;;;;;;;;;;;5.74;39.45;102727.31;5056168;28;19921;-76
2023/04/16 05:52:19;;;;;;;;;;;;;;;5.84;39.23;102728.53;5055818;28;20410;-69
2023/04/16 05:57:57;;;;;;;;;;;;;;;5.86;37.91;102734.59;5053229;28;19966;-72
2023/04/16 06:00:22;;;;;;;;;;;;;;;5.91;38.51;102729.94;5053550;28;20388;-71
2023/04/16 06:02:48;;;;;;;;;;;;;;;6.01;38.65;102728.47;5053963;28;20399;-71
2023/04/16 06:05:13;;;;;;;;;;;;;;;6.27;38.73;102727.00;5053301;28;19924;-75
2023/04/16 06:07:38;;;;;;;;;;;;;;;6.53;37.95;102734.31;5024063;28;20245;-72
2023/04/16 06:10:04;;;;;;;;;;;;;;;6.62;36.88;102727.63;5035811;28;19978;-68
2023/04/16 06:12:29;;;;;;;;;;;;;;;6.38;36.98;102729.06;5033119;28;19917;-73
2023/04/16 06:14:55;;;;;;;;;;;;;;;6.19;37.95;102718.66;5032314;28;20349;-70
2023/04/16 06:17:20;;;;;;;;;;;;;;;6.27;38.21;102720.88;5033494;28;19917;-70
2023/04/16 06:19:46;;;;;;;;;;;;;;;6.41;38.00;102724.44;5033434;28;19920;-70
2023/04/16 06:22:11;;;;;;;;;;;;;;;6.50;37.51;102718.63;5033250;28;19913;-69
2023/04/16 06:24:36;;;;;;;;;;;;;;;6.63;36.99;102721.41;5032811;28;20019;-70
2023/04/16 06:27:14;;;;;;;;;;;;;;;6.81;37.20;102722.13;5033029;28;19913;-79
2023/04/16 06:29:39;;;;;;;;;;;;;;;6.90;36.35;102724.22;5035183;28;19940;-69
2023/04/16 06:32:05;;;;;;;;;;;;;;;7.03;36.52;102722.56;5036703;28;19921;-71
2023/04/16 06:34:30;;;;;;;;;;;;;;;7.17;35.64;102723.53;5034520;28;19936;-71
2023/04/16 06:36:55;;;;;;;;;;;;;;;7.14;36.69;102714.81;5014992;28;19917;-74
2023/04/16 06:39:20;;;;;;;;;;;;;;;7.28;36.96;102715.78;5032528;28;19913;-71
2023/04/16 06:41:46;;;;;;;;;;;;;;;7.41;35.59;102717.56;5032703;28;19920;-70
2023/04/16 06:44:12;;;;;;;;;;;;;;;7.40;35.56;102718.53;5032892;28;19920;-71
2023/04/16 06:46:37;;;;;;;;;;;;;;;7.32;36.20;102712.84;5032708;28;19920;-68
2023/04/16 06:49:02;;;;;;;;;;;;;;;7.31;36.32;102705.84;5033070;28;19917;-67
2023/04/16 06:51:28;;;;;;;;;;;;;;;7.39;35.83;102705.38;5042703;28;19929;-67
2023/04/16 06:53:53;;;;;;;;;;;;;;;7.45;36.36;102704.97;5036580;28;19948;-67
2023/04/16 06:56:19;;;;;;;;;;;;;;;7.49;36.05;102705.63;5039593;28;20006;-67
2023/04/16 06:58:44;;;;;;;;;;;;;;;7.42;35.68;102703.38;5043203;28;20055;-71
2023/04/16 07:01:09;;;;;;;;;;;;;;;7.40;35.75;102694.66;5041008;28;19971;-70
2023/04/16 07:03:37;;;;;;;;;;;;;;;7.45;35.61;102702.34;5043479;28;19929;-69
2023/04/16 07:06:02;;;;;;;;;;;;;;;7.60;36.01;102696.09;5040145;28;19917;-72
2023/04/16 07:08:28;;;;;;;;;;;;;;;7.74;35.30;102701.38;5042050;28;19970;-69
2023/04/16 07:10:53;;;;;;;;;;;;;;;7.83;35.93;102705.25;5037699;28;20012;-68
2023/04/16 07:13:19;;;;;;;;;;;;;;;7.87;35.00;102704.09;5043496;28;19927;-70
2023/04/16 07:15:44;;;;;;;;;;;;;;;7.92;35.43;102706.47;5041166;28;20030;-69
2023/04/16 07:18:09;;;;;;;;;;;;;;;7.96;35.70;102700.00;5041277;28;19917;-69
2023/04/16 07:20:35;;;;;;;;;;;;;;;8.04;34.75;102697.69;5045430;28;19929;-71
2023/04/16 07:23:00;;;;;;;;;;;;;;;8.20;34.69;102689.63;5040547;28;20344;-71
2023/04/16 07:25:26;;;;;;;;;;;;;;;8.29;34.88;102700.47;5047216;28;19940;-70
2023/04/16 07:27:51;;;;;;;;;;;;;;;8.17;34.84;102695.97;5067696;28;19935;-71
2023/04/16 07:30:17;;;;;;;;;;;;;;;8.24;34.44;102693.75;5064844;28;19921;-71
2023/04/16 07:32:42;;;;;;;;;;;;;;;8.34;34.93;102690.44;5040043;28;19917;-71
2023/04/16 07:35:07;;;;;;;;;;;;;;;8.42;34.90;102689.94;5037806;28;20369;-70
2023/04/16 07:37:33;;;;;;;;;;;;;;;8.45;34.50;102696.84;5036666;28;19940;-71
2023/04/16 07:40:01;;;;;;;;;;;;;;;8.56;34.20;102692.50;5036548;28;19960;-69
2023/04/16 07:42:28;;;;;;;;;;;;;;;8.55;34.43;102689.97;5042378;28;19967;-72
2023/04/16 07:44:54;;;;;;;;;;;;;;;8.49;33.59;102685.06;5045204;28;19968;-71
2023/04/16 07:47:21;;;;;;;;;;;;;;;8.46;33.93;102687.94;5037315;28;20154;-71
2023/04/16 07:49:47;;;;;;;;;;;;;;;8.42;33.89;102689.09;5044852;28;19920;-69
2023/04/16 07:52:12;;;;;;;;;;;;;;;8.36;34.74;102688.53;5044056;28;19922;-71
2023/04/16 07:54:39;;;;;;;;;;;;;;;8.27;34.08;102685.59;5044247;28;19919;-72
2023/04/16 07:57:05;;;;;;;;;;;;;;;8.26;33.55;102679.44;5020347;28;20036;-69
2023/04/16 07:59:30;;;;;;;;;;;;;;;8.38;34.84;102684.00;5028607;28;20011;-71
2023/04/16 08:01:56;;;;;;;;;;;;;;;8.57;34.26;102677.44;5044934;28;19913;-71
2023/04/16 08:04:23;;;;;;;;;;;;;;;8.81;33.95;102680.25;5047060;28;19916;-74
2023/04/16 08:06:52;;;;;;;;;;;;;;;9.02;32.93;102677.94;5023115;28;19929;-76
2023/04/16 08:09:22;;;;;;;;;;;;;;;8.92;33.45;102678.53;5020246;28;20046;-76
2023/04/16 08:11:48;;;;;;;;;;;;;;;8.80;33.37;102687.38;5027808;28;19950;-71
2023/04/16 08:14:14;;;;;;;;;;;;;;;8.77;33.95;102684.91;5045651;28;19943;-69
2023/04/16 08:16:40;;;;;;;;;;;;;;;8.82;33.24;102693.41;5042761;28;19920;-73
2023/04/16 08:19:06;;;;;;;;;;;;;;;8.84;33.13;102688.84;5017829;28;19913;-69
2023/04/16 08:21:32;;;;;;;;;;;;;;;8.88;33.53;102687.69;5031768;28;20386;-72
2023/04/16 08:23:58;;;;;;;;;;;;;;;9.07;32.72;102683.78;5053193;28;19924;-72
2023/04/16 08:26:24;;;;;;;;;;;;;;;9.20;32.38;102681.94;5036972;28;19913;-77
2023/04/16 08:28:49;;;;;;;;;;;;;;;9.37;32.62;102673.66;5054943;28;19920;-75
2023/04/16 08:31:15;;;;;;;;;;;;;;;9.56;32.67;102678.53;5054387;28;19923;-73
2023/04/16 08:33:41;;;;;;;;;;;;;;;9.69;32.18;102678.50;5054355;28;19916;-71
2023/04/16 08:36:06;;;;;;;;;;;;;;;9.90;31.77;102666.31;5054130;28;19919;-72
2023/04/16 08:38:32;;;;;;;;;;;;;;;10.19;31.28;102666.84;5055771;28;19920;-74
2023/04/16 08:41:01;;;;;;;;;;;;;;;10.59;31.17;102670.03;5056177;28;20280;-72
2023/04/16 08:43:27;;;;;;;;;;;;;;;10.75;29.67;102659.94;5028224;28;19960;-74
2023/04/16 08:45:55;;;;;;;;;;;;;;;10.79;29.84;102666.72;5030542;28;19924;-74
2023/04/16 08:48:22;;;;;;;;;;;;;;;10.73;30.05;102663.69;5048303;28;19913;-72
2023/04/16 08:50:51;;;;;;;;;;;;;;;10.77;30.21;102662.47;5022973;28;19913;-72
2023/04/16 08:53:17;;;;;;;;;;;;;;;10.53;30.08;102668.69;5009038;28;19913;-72
2023/04/16 08:55:46;;;;;;;;;;;;;;;10.59;30.09;102674.53;5053513;28;19920;-72
2023/04/16 08:58:17;;;;;;;;;;;;;;;10.67;30.03;102664.97;5033203;28;20357;-69
2023/04/16 09:00:42;;;;;;;;;;;;;;;10.85;30.41;102666.25;5040733;28;20016;-72
2023/04/16 09:03:09;;;;;;;;;;;;;;;11.05;29.59;102666.53;5034070;28;20012;-70
2023/04/16 09:05:35;;;;;;;;;;;;;;;11.15;29.00;102656.81;5034816;28;19921;-71
2023/04/16 09:08:00;;;;;;;;;;;;;;;11.28;27.07;102656.72;5038797;28;20002;-71
2023/04/16 09:10:26;;;;;;;;;;;;;;;11.44;26.70;102649.19;5034885;28;19920;-70
2023/04/16 09:12:54;;;;;;;;;;;;;;;11.61;26.33;102651.38;5034489;28;20043;-73
2023/04/16 09:15:20;;;;;;;;;;;;;;;11.73;25.22;102647.69;5034545;28;19920;-71
2023/04/16 09:17:45;;;;;;;;;;;;;;;11.83;25.04;102642.47;5033911;28;19916;-71
2023/04/16 09:20:11;;;;;;;;;;;;;;;11.89;25.08;102647.34;5034315;28;19917;-74
2023/04/16 09:22:37;;;;;;;;;;;;;;;11.94;24.95;102646.97;5033974;28;19913;-72
2023/04/16 09:25:02;;;;;;;;;;;;;;;11.94;24.91;102647.81;5034138;28;20412;-74
2023/04/16 09:27:29;;;;;;;;;;;;;;;11.98;23.77;102649.25;5036131;28;20008;-71
2023/04/16 09:29:54;;;;;;;;;;;;;;;11.95;24.44;102644.16;5041207;28;19932;-71
2023/04/16 09:32:26;;;;;;;;;;;;;;;12.01;25.19;102642.81;5040604;28;19970;-72
2023/04/16 09:34:56;;;;;;;;;;;;;;;12.07;25.00;102648.50;5039275;28;20280;-74
2023/04/16 09:37:21;;;;;;;;;;;;;;;12.02;24.62;102648.03;5038568;28;19981;-73
2023/04/16 09:39:54;;;;;;;;;;;;;;;11.99;24.65;102647.44;5039387;28;19980;-73
2023/04/16 09:42:21;;;;;;;;;;;;;;;11.75;23.81;102643.09;5038732;28;19966;-72
2023/04/16 09:44:48;;;;;;;;;;;;;;;11.72;24.40;102640.66;5037139;28;19917;-72
2023/04/16 09:47:13;;;;;;;;;;;;;;;11.85;25.37;102645.88;5033932;28;19913;-73
2023/04/16 09:49:42;;;;;;;;;;;;;;;11.85;23.97;102651.22;5033893;28;20401;-70
2023/04/16 09:52:16;;;;;;;;;;;;;;;11.82;24.73;102640.78;5033646;28;19917;-74
2023/04/16 09:54:51;;;;;;;;;;;;;;;11.90;23.61;102633.03;5033400;28;19913;-76
2023/04/16 09:57:20;;;;;;;;;;;;;;;11.92;23.38;102639.09;5033545;28;19976;-75
2023/04/16 09:59:46;;;;;;;;;;;;;;;11.94;24.36;102637.13;5032394;28;19917;-75
2023/04/16 10:02:11;;;;;;;;;;;;;;;11.99;24.57;102639.41;5033264;28;19913;-75
2023/04/16 10:04:44;;;;;;;;;;;;;;;11.89;25.11;102647.34;5033203;28;19940;-74
2023/04/16 10:07:11;;;;;;;;;;;;;;;11.82;25.26;102651.47;5034137;28;19949;-75
2023/04/16 10:09:37;;;;;;;;;;;;;;;11.84;25.49;102644.19;5031669;28;19913;-72
2023/04/16 10:12:02;;;;;;;;;;;;;;;11.81;25.19;102639.09;5033307;28;19913;-73
2023/04/16 10:14:27;;;;;;;;;;;;;;;11.77;25.90;102637.63;5032901;28;19913;-72
2023/04/16 10:16:54;;;;;;;;;;;;;;;11.75;25.99;102650.25;5033357;28;19919;-71
2023/04/16 10:19:20;;;;;;;;;;;;;;;11.70;26.11;102639.09;5033159;28;19917;-72
2023/04/16 10:21:46;;;;;;;;;;;;;;;11.69;26.43;102637.41;5032930;28;20012;-69
2023/04/16 10:24:11;;;;;;;;;;;;;;;11.65;26.21;102633.28;5033270;28;20476;-70
2023/04/16 10:26:37;;;;;;;;;;;;;;;11.69;27.07;102640.06;5033118;28;19952;-72
2023/04/16 10:29:04;;;;;;;;;;;;;;;11.85;26.70;102639.69;5032662;28;20068;-71
2023/04/16 10:31:30;;;;;;;;;;;;;;;11.98;24.96;102641.25;5033248;28;19913;-70
2023/04/16 10:33:57;;;;;;;;;;;;;;;12.14;25.75;102639.97;5032694;28;19924;-74
2023/04/16 10:36:23;;;;;;;;;;;;;;;12.25;25.24;102643.47;5037881;28;19929;-69
2023/04/16 10:38:49;;;;;;;;;;;;;;;12.18;25.06;102647.63;5053722;28;19975;-69
2023/04/16 10:41:15;;;;;;;;;;;;;;;12.20;25.10;102642.16;5049761;28;20430;-69
2023/04/16 10:43:44;;;;;;;;;;;;;;;12.32;25.26;102641.13;5033833;28;19917;-69
2023/04/16 10:46:20;;;;;;;;;;;;;;;12.44;24.98;102647.28;5031902;28;19913;-73
2023/04/16 10:48:46;;;;;;;;;;;;;;;12.55;24.67;102645.38;5033294;28;19917;-70
2023/04/16 10:51:28;;;;;;;;;;;;;;;12.66;25.59;102642.63;5032849;28;20387;-71
2023/04/16 10:53:55;;;;;;;;;;;;;;;12.53;25.15;102641.16;5031133;28;19913;-71
2023/04/16 10:56:25;;;;;;;;;;;;;;;12.32;25.49;102635.78;5032625;28;19936;-70
2023/04/16 10:58:51;;;;;;;;;;;;;;;12.04;25.56;102635.38;5032048;28;19913;-72
2023/04/16 11:01:17;;;;;;;;;;;;;;;12.04;26.30;102635.38;5031682;28;20310;-69
2023/04/16 11:03:45;;;;;;;;;;;;;;;12.02;25.27;102642.69;5032107;28;19971;-71
2023/04/16 11:06:11;;;;;;;;;;;;;;;11.77;26.15;102640.28;5032333;28;19917;-72
2023/04/16 11:08:38;;;;;;;;;;;;;;;11.72;26.03;102629.13;5032280;28;20309;-70
2023/04/16 11:11:04;;;;;;;;;;;;;;;11.77;26.25;102629.59;5032367;28;19936;-71
2023/04/16 11:13:30;;;;;;;;;;;;;;;11.85;26.15;102635.19;5032071;28;20353;-71
2023/04/16 11:15:56;;;;;;;;;;;;;;;11.68;25.99;102635.69;5032085;28;19956;-68
2023/04/16 11:18:22;;;;;;;;;;;;;;;11.52;26.71;102632.56;5031433;28;19913;-71
2023/04/16 11:20:47;;;;;;;;;;;;;;;11.43;26.48;102635.00;5031268;28;19936;-71
2023/04/16 11:23:12;;;;;;;;;;;;;;;11.28;26.75;102632.72;5032922;28;19913;-73
2023/04/16 11:25:38;;;;;;;;;;;;;;;11.20;26.50;102622.63;5034299;28;19913;-70
2023/04/16 11:28:03;;;;;;;;;;;;;;;11.13;26.78;102618.78;5035064;28;19917;-69
2023/04/16 11:30:29;;;;;;;;;;;;;;;11.14;27.06;102625.78;5032080;28;19913;-68
2023/04/16 11:32:55;;;;;;;;;;;;;;;11.11;26.61;102623.38;5035380;28;19917;-69
2023/04/16 11:35:22;;;;;;;;;;;;;;;11.16;27.32;102623.84;5035528;28;19924;-68
2023/04/16 11:37:48;;;;;;;;;;;;;;;11.15;26.84;102619.50;5033442;28;19913;-70
2023/04/16 11:40:13;;;;;;;;;;;;;;;11.14;26.72;102617.78;5031968;28;20016;-71
2023/04/16 11:42:39;;;;;;;;;;;;;;;11.17;26.81;102617.56;5031931;28;19913;-71
2023/04/16 11:45:05;;;;;;;;;;;;;;;11.09;26.99;102609.31;5031732;28;19921;-69
2023/04/16 11:47:31;;;;;;;;;;;;;;;11.12;26.55;102609.91;5031414;28;19912;-71
2023/04/16 11:49:57;;;;;;;;;;;;;;;11.22;26.67;102607.38;5033360;28;19975;-73
2023/04/16 11:52:26;;;;;;;;;;;;;;;11.23;26.71;102606.38;5034518;28;20352;-71
2023/04/16 11:54:51;;;;;;;;;;;;;;;11.25;26.66;102609.78;5034282;28;19913;-71
2023/04/16 11:57:26;;;;;;;;;;;;;;;11.26;26.15;102600.81;5034101;28;20027;-70
2023/04/16 11:59:52;;;;;;;;;;;;;;;11.17;26.23;102606.88;5032738;28;19968;-72
2023/04/16 12:02:32;;;;;;;;;;;;;;;11.06;26.22;102609.56;5031801;28;19917;-71
2023/04/16 12:04:57;;;;;;;;;;;;;;;11.16;26.35;102610.53;5031185;28;19917;-71
2023/04/16 12:07:23;;;;;;;;;;;;;;;11.15;25.67;102603.50;5031539;28;19917;-69
2023/04/16 12:09:48;;;;;;;;;;;;;;;11.20;26.09;102595.97;5031675;28;19917;-70
2023/04/16 12:12:29;;;;;;;;;;;;;;;11.34;26.63;102598.41;5035608;28;20003;-69
2023/04/16 12:14:58;;;;;;;;;;;;;;;11.56;25.49;102594.81;5035891;28;20495;-71
2023/04/16 12:17:23;;;;;;;;;;;;;;;11.71;25.99;102595.41;5035147;28;20384;-75
2023/04/16 12:19:56;;;;;;;;;;;;;;;11.87;25.60;102593.22;5035804;28;19913;-74
2023/04/16 12:22:26;;;;;;;;;;;;;;;11.92;25.44;102588.34;5035166;28;19963;-73
2023/04/16 12:24:54;;;;;;;;;;;;;;;12.01;25.54;102592.91;5050466;28;19913;-72
2023/04/16 12:27:21;;;;;;;;;;;;;;;12.15;25.97;102582.94;5052986;28;19924;-74
2023/04/16 12:30:01;;;;;;;;;;;;;;;12.27;25.63;102590.75;5047293;28;19913;-73
2023/04/16 12:32:26;;;;;;;;;;;;;;;12.22;24.83;102587.63;5034622;28;19913;-69
2023/04/16 12:34:52;;;;;;;;;;;;;;;12.17;25.06;102580.97;5050174;28;19992;-71
2023/04/16 12:37:17;;;;;;;;;;;;;;;12.15;25.40;102580.25;5054245;28;20305;-72
2023/04/16 12:39:42;;;;;;;;;;;;;;;12.24;25.59;102582.16;5054298;28;19912;-72
2023/04/16 12:42:10;;;;;;;;;;;;;;;12.32;24.93;102579.66;5054461;28;19913;-70